createdAt,value
2022-11-27T00:01:21.587Z,46.13
2022-11-27T00:03:49.018Z,46.03
2022-11-27T00:06:17.793Z,46.72
2022-11-27T00:08:45.175Z,45.58
2022-11-27T00:11:18.297Z,46.80
2022-11-27T00:13:45.293Z,46.63
2022-11-27T00:16:13.254Z,45.50
2022-11-27T00:18:43.321Z,44.28
2022-11-27T00:21:19.150Z,44.33
2022-11-27T00:23:45.845Z,44.83
2022-11-27T00:26:12.858Z,44.47
2022-11-27T00:28:39.575Z,44.53
2022-11-27T00:31:09.066Z,44.85
2022-11-27T00:33:35.712Z,44.85
2022-11-27T00:36:06.444Z,43.60
2022-11-27T00:38:38.455Z,43.00
2022-11-27T00:41:17.793Z,43.45
2022-11-27T00:43:45.437Z,44.17
2022-11-27T00:46:16.924Z,41.88
2022-11-27T00:48:43.624Z,43.20
2022-11-27T00:51:14.083Z,42.17
2022-11-27T00:53:40.691Z,42.92
2022-11-27T00:56:08.176Z,41.47
2022-11-27T00:58:34.725Z,42.45
2022-11-27T01:01:03.816Z,41.28
2022-11-27T01:03:31.682Z,41.10
2022-11-27T01:06:06.062Z,41.10
2022-11-27T01:08:33.813Z,41.00
2022-11-27T01:11:00.777Z,41.15
2022-11-27T01:13:32.626Z,42.90
2022-11-27T01:16:06.290Z,41.65
2022-11-27T01:18:34.314Z,41.35
2022-11-27T01:21:00.784Z,41.60
2022-11-27T01:23:27.598Z,41.83
2022-11-27T01:25:54.639Z,41.90
2022-11-27T01:28:23.432Z,42.42
2022-11-27T01:30:50.950Z,42.13
2022-11-27T01:33:18.212Z,43.25
2022-11-27T01:35:55.078Z,41.30
2022-11-27T01:38:22.173Z,41.58
2022-11-27T01:40:48.809Z,43.65
2022-11-27T01:43:16.206Z,40.85
2022-11-27T01:45:45.256Z,41.00
2022-11-27T01:48:13.432Z,40.55
2022-11-27T01:50:40.550Z,40.00
2022-11-27T01:53:15.687Z,41.58
2022-11-27T01:55:54.996Z,40.65
2022-11-27T01:58:28.147Z,40.70
2022-11-27T02:00:54.885Z,40.17
2022-11-27T02:03:22.080Z,40.05
2022-11-27T02:05:48.631Z,40.10
2022-11-27T02:08:16.839Z,40.67
2022-11-27T02:11:07.823Z,39.80
2022-11-27T02:13:50.294Z,39.35
2022-11-27T02:16:19.722Z,39.97
2022-11-27T02:19:15.554Z,39.10
2022-11-27T02:22:02.286Z,39.97
2022-11-27T02:24:56.558Z,38.70
2022-11-27T02:27:41.459Z,42.20
2022-11-27T02:30:08.430Z,42.17
2022-11-27T02:32:37.809Z,43.08
2022-11-27T02:35:27.876Z,43.57
2022-11-27T02:38:00.928Z,41.08
2022-11-27T02:40:34.701Z,39.55
2022-11-27T02:43:08.916Z,40.08
2022-11-27T02:45:43.270Z,40.05
2022-11-27T02:48:12.192Z,39.45
2022-11-27T02:50:41.541Z,40.53
2022-11-27T02:53:12.681Z,38.70
2022-11-27T02:55:40.560Z,38.20
2022-11-27T02:58:11.898Z,39.72
2022-11-27T03:00:43.285Z,38.20
2022-11-27T03:03:13.103Z,38.33
2022-11-27T03:05:43.517Z,38.65
2022-11-27T03:08:18.995Z,38.42
2022-11-27T03:10:51.608Z,37.30
2022-11-27T03:13:18.509Z,38.67
2022-11-27T03:16:01.043Z,38.15
2022-11-27T03:18:42.887Z,38.75
2022-11-27T03:21:29.544Z,37.33
2022-11-27T03:23:57.520Z,36.88
2022-11-27T03:26:24.081Z,38.28
2022-11-27T03:28:51.824Z,38.28
2022-11-27T03:31:20.443Z,37.60
2022-11-27T03:33:47.270Z,38.70
2022-11-27T03:36:19.362Z,38.92
2022-11-27T03:38:48.902Z,38.42
2022-11-27T03:41:52.804Z,37.88
2022-11-27T03:44:35.706Z,39.35
2022-11-27T03:47:11.207Z,38.28
2022-11-27T03:49:57.856Z,38.88
2022-11-27T03:52:32.846Z,39.53
2022-11-27T03:55:15.120Z,39.17
2022-11-27T03:58:19.180Z,40.35
2022-11-27T04:00:49.125Z,39.95
2022-11-27T04:03:24.076Z,39.25
2022-11-27T04:05:50.796Z,40.45
2022-11-27T04:08:17.605Z,43.08
2022-11-27T04:10:44.216Z,42.70
2022-11-27T04:13:10.851Z,43.40
2022-11-27T04:15:37.274Z,43.72
2022-11-27T04:18:03.827Z,42.53
2022-11-27T04:20:30.419Z,44.15
2022-11-27T04:22:56.841Z,45.60
2022-11-27T04:25:23.503Z,45.75
2022-11-27T04:27:50.488Z,45.53
2022-11-27T04:30:17.832Z,45.35
2022-11-27T04:32:44.253Z,43.58
2022-11-27T04:35:11.433Z,45.10
2022-11-27T04:37:37.832Z,45.63
2022-11-27T04:40:05.436Z,45.75
2022-11-27T04:42:31.891Z,45.97
2022-11-27T04:44:58.425Z,45.55
2022-11-27T04:47:24.980Z,46.63
2022-11-27T04:49:51.381Z,45.78
2022-11-27T04:52:17.881Z,48.00
2022-11-27T04:54:44.296Z,47.03
2022-11-27T04:57:10.764Z,49.08
2022-11-27T04:59:37.993Z,47.45
2022-11-27T05:02:04.750Z,47.05
2022-11-27T05:04:31.201Z,47.80
2022-11-27T05:06:57.647Z,51.40
2022-11-27T05:09:24.138Z,48.80
2022-11-27T05:11:50.656Z,49.20
2022-11-27T05:14:18.028Z,47.92
2022-11-27T05:16:47.162Z,50.22
2022-11-27T05:19:14.366Z,55.35
2022-11-27T05:21:41.777Z,56.35
2022-11-27T05:24:11.170Z,55.45
2022-11-27T05:26:39.571Z,61.90
2022-11-27T05:29:07.630Z,55.38
2022-11-27T05:31:34.630Z,54.83
2022-11-27T05:34:01.494Z,54.25
2022-11-27T05:36:28.546Z,54.65
2022-11-27T05:38:54.985Z,55.05
2022-11-27T05:41:21.611Z,53.85
2022-11-27T05:43:48.212Z,57.75
2022-11-27T05:46:19.925Z,58.08
2022-11-27T05:48:46.435Z,58.15
2022-11-27T05:51:13.573Z,57.13
2022-11-27T05:53:40.132Z,56.42
2022-11-27T05:56:15.376Z,58.45
2022-11-27T05:58:43.687Z,61.30
2022-11-27T06:01:12.517Z,61.00
2022-11-27T06:03:39.186Z,59.88
2022-11-27T06:06:09.953Z,60.97
2022-11-27T06:08:37.642Z,61.38
2022-11-27T06:11:15.802Z,58.20
2022-11-27T06:13:42.833Z,59.50
2022-11-27T06:16:13.931Z,60.55
2022-11-27T06:18:43.378Z,63.70
2022-11-27T06:21:14.676Z,58.88
2022-11-27T06:23:42.718Z,60.20
2022-11-27T06:26:17.336Z,61.80
2022-11-27T06:28:44.737Z,60.47
2022-11-27T06:31:17.875Z,58.88
2022-11-27T06:33:46.141Z,57.80
2022-11-27T06:36:12.700Z,59.50
2022-11-27T06:38:39.322Z,60.17
2022-11-27T06:41:09.193Z,57.97
2022-11-27T06:43:36.407Z,57.65
2022-11-27T06:46:04.524Z,60.80
2022-11-27T06:48:32.731Z,58.05
2022-11-27T06:51:04.658Z,58.78
2022-11-27T06:53:34.321Z,58.50
2022-11-27T06:56:06.645Z,58.25
2022-11-27T06:58:33.088Z,61.85
2022-11-27T07:01:02.105Z,59.35
2022-11-27T07:03:28.812Z,59.85
2022-11-27T07:05:58.047Z,59.35
2022-11-27T07:08:24.574Z,57.20
2022-11-27T07:10:51.032Z,58.10
2022-11-27T07:13:17.447Z,59.03
2022-11-27T07:15:44.159Z,56.28
2022-11-27T07:18:11.399Z,56.88
2022-11-27T07:20:37.874Z,53.90
2022-11-27T07:23:04.324Z,55.47
2022-11-27T07:25:30.831Z,55.95
2022-11-27T07:27:57.254Z,57.03
2022-11-27T07:30:23.784Z,55.75
2022-11-27T07:32:50.177Z,55.75
2022-11-27T07:35:16.715Z,55.55
2022-11-27T07:37:43.130Z,57.65
2022-11-27T07:40:09.785Z,58.08
2022-11-27T07:42:41.481Z,55.70
2022-11-27T07:45:08.911Z,56.75
2022-11-27T07:47:35.367Z,57.08
2022-11-27T07:50:01.920Z,58.85
2022-11-27T07:52:28.346Z,59.47
2022-11-27T07:54:54.935Z,57.60
2022-11-27T07:57:21.363Z,57.53
2022-11-27T07:59:48.022Z,56.28
2022-11-27T08:02:14.945Z,59.90
2022-11-27T08:04:41.769Z,59.70
2022-11-27T08:07:08.651Z,57.13
2022-11-27T08:09:35.234Z,57.85
2022-11-27T08:12:01.693Z,59.22
2022-11-27T08:14:28.159Z,56.90
2022-11-27T08:16:54.812Z,57.88
2022-11-27T08:19:21.684Z,56.70
2022-11-27T08:21:48.158Z,59.13
2022-11-27T08:24:14.608Z,56.00
2022-11-27T08:26:41.051Z,56.42
2022-11-27T08:29:07.694Z,56.97
2022-11-27T08:31:34.546Z,56.90
2022-11-27T08:34:02.190Z,56.10
2022-11-27T08:36:28.762Z,54.45
2022-11-27T08:38:55.988Z,57.75
2022-11-27T08:41:22.493Z,54.75
2022-11-27T08:43:49.252Z,57.38
2022-11-27T08:46:15.985Z,55.13
2022-11-27T08:48:42.486Z,55.28
2022-11-27T08:51:12.382Z,54.10
2022-11-27T08:53:39.209Z,54.10
2022-11-27T08:56:11.740Z,50.72
2022-11-27T08:58:38.265Z,52.05
2022-11-27T09:01:15.583Z,50.95
2022-11-27T09:03:42.199Z,50.55
2022-11-27T09:06:10.821Z,52.22
2022-11-27T09:08:39.070Z,52.65
2022-11-27T09:11:06.326Z,50.13
2022-11-27T09:13:36.658Z,48.92
2022-11-27T09:16:08.648Z,51.05
2022-11-27T09:18:35.279Z,48.85
2022-11-27T09:21:04.732Z,49.90
2022-11-27T09:23:31.785Z,51.60
2022-11-27T09:26:00.139Z,49.65
2022-11-27T09:28:31.407Z,51.20
2022-11-27T09:31:00.644Z,50.55
2022-11-27T09:33:29.310Z,50.53
2022-11-27T09:35:55.949Z,51.85
2022-11-27T09:38:23.792Z,50.35
2022-11-27T09:40:52.251Z,50.72
2022-11-27T09:43:28.448Z,51.97
2022-11-27T09:46:01.384Z,48.25
2022-11-27T09:48:35.935Z,49.72
2022-11-27T09:51:10.006Z,49.33
2022-11-27T09:53:55.890Z,49.13
2022-11-27T09:56:23.029Z,46.97
2022-11-27T09:58:57.324Z,47.35
2022-11-27T10:01:42.082Z,44.80
2022-11-27T10:04:13.863Z,46.08
2022-11-27T10:06:52.315Z,43.08
2022-11-27T10:10:00.109Z,45.75
2022-11-27T10:13:04.844Z,44.67
2022-11-27T10:15:46.524Z,44.40
2022-11-27T10:18:38.898Z,41.38
2022-11-27T10:21:37.271Z,44.08
2022-11-27T10:24:25.692Z,41.67
2022-11-27T10:26:58.022Z,43.17
2022-11-27T10:29:47.223Z,41.58
2022-11-27T10:32:47.231Z,42.80
2022-11-27T10:35:13.651Z,40.47
2022-11-27T10:37:47.121Z,43.95
2022-11-27T10:40:13.708Z,39.58
2022-11-27T10:43:15.250Z,39.28
2022-11-27T10:45:46.284Z,38.80
2022-11-27T10:48:14.376Z,40.38
2022-11-27T10:50:42.425Z,39.20
2022-11-27T10:53:14.814Z,38.83
2022-11-27T10:56:05.965Z,37.88
2022-11-27T10:58:42.680Z,39.03
2022-11-27T11:01:11.758Z,37.88
2022-11-27T11:03:38.321Z,36.50
2022-11-27T11:06:20.669Z,35.67
2022-11-27T11:08:48.097Z,36.00
2022-11-27T11:11:25.819Z,35.20
2022-11-27T11:13:52.682Z,36.63
2022-11-27T11:16:29.430Z,34.95
2022-11-27T11:18:58.787Z,36.65
2022-11-27T11:21:29.748Z,35.03
2022-11-27T11:23:59.947Z,35.00
2022-11-27T11:26:31.633Z,34.20
2022-11-27T11:29:02.316Z,31.02
2022-11-27T11:31:36.880Z,31.08
2022-11-27T11:34:12.580Z,29.75
2022-11-27T11:36:38.985Z,28.38
2022-11-27T11:39:05.467Z,27.38
2022-11-27T11:41:38.711Z,26.45
2022-11-27T11:44:05.377Z,27.15
2022-11-27T11:46:33.741Z,25.20
2022-11-27T11:49:03.244Z,25.90
2022-11-27T11:51:32.881Z,23.87
2022-11-27T11:54:34.290Z,23.13
2022-11-27T11:57:03.083Z,23.10
2022-11-27T11:59:55.056Z,24.67
2022-11-27T12:02:53.454Z,22.70
2022-11-27T12:05:41.222Z,23.35
2022-11-27T12:08:29.458Z,22.15
2022-11-27T12:11:18.378Z,21.63
2022-11-27T12:14:08.110Z,20.98
2022-11-27T12:16:49.241Z,22.60
2022-11-27T12:19:58.031Z,20.50
2022-11-27T12:23:06.023Z,19.83
2022-11-27T12:26:13.880Z,19.25
2022-11-27T12:28:57.503Z,19.70
2022-11-27T12:31:25.649Z,19.13
2022-11-27T12:34:07.020Z,18.95
2022-11-27T12:36:39.925Z,18.35
2022-11-27T12:39:32.537Z,19.23
2022-11-27T12:42:04.269Z,19.13
2022-11-27T12:45:14.632Z,18.85
2022-11-27T12:50:25.784Z,18.20
2022-11-27T12:53:27.389Z,19.13
2022-11-27T12:56:29.715Z,17.73
2022-11-27T12:59:29.879Z,17.77
2022-11-27T13:02:13.346Z,17.90
2022-11-27T13:04:47.068Z,17.10
2022-11-27T13:07:59.931Z,16.70
2022-11-27T13:10:41.001Z,18.25
2022-11-27T13:13:19.474Z,17.17
2022-11-27T13:15:52.252Z,17.38
2022-11-27T13:18:36.693Z,16.90
2022-11-27T13:21:10.680Z,16.55
2022-11-27T13:23:37.249Z,17.52
2022-11-27T13:26:07.241Z,16.90
2022-11-27T13:28:47.477Z,17.27
2022-11-27T13:33:59.626Z,16.80
2022-11-27T13:36:38.895Z,18.00
2022-11-27T13:39:06.360Z,16.98
2022-11-27T13:41:34.745Z,16.40
2022-11-27T13:44:02.604Z,17.90
2022-11-27T13:46:31.742Z,17.77
2022-11-27T13:49:02.763Z,16.65
2022-11-27T13:51:35.191Z,16.52
2022-11-27T13:54:10.784Z,17.08
2022-11-27T13:56:37.841Z,16.17
2022-11-27T13:59:23.834Z,17.55
2022-11-27T14:02:09.078Z,16.83
2022-11-27T14:04:50.624Z,16.77
2022-11-27T14:07:21.404Z,16.90
2022-11-27T14:09:56.374Z,16.60
2022-11-27T14:12:28.027Z,16.95
2022-11-27T14:15:17.469Z,17.63
2022-11-27T14:17:46.326Z,17.57
2022-11-27T14:20:15.873Z,17.10
2022-11-27T14:23:10.577Z,17.15
2022-11-27T14:25:38.901Z,17.42
2022-11-27T14:28:26.255Z,17.57
2022-11-27T14:31:02.343Z,16.98
2022-11-27T14:33:33.177Z,15.75
2022-11-27T14:36:07.466Z,17.55
2022-11-27T14:38:35.350Z,19.13
2022-11-27T14:41:22.706Z,17.70
2022-11-27T14:44:14.711Z,17.60
2022-11-27T14:46:41.760Z,15.98
2022-11-27T14:49:18.436Z,17.27
2022-11-27T14:51:45.616Z,16.55
2022-11-27T14:54:17.034Z,17.30
2022-11-27T14:56:44.485Z,17.15
2022-11-27T14:59:16.227Z,16.83
2022-11-27T15:01:43.053Z,16.50
2022-11-27T15:04:34.740Z,17.25
2022-11-27T15:07:05.164Z,15.93
2022-11-27T15:09:34.234Z,17.50
2022-11-27T15:12:34.569Z,16.70
2022-11-27T15:18:01.654Z,16.17
2022-11-27T15:20:37.229Z,16.83
2022-11-27T15:23:04.632Z,17.13
2022-11-27T15:25:38.740Z,17.60
2022-11-27T15:28:23.527Z,18.10
2022-11-27T15:30:50.358Z,18.05
2022-11-27T15:33:37.029Z,16.83
2022-11-27T15:36:21.919Z,18.13
2022-11-27T15:38:51.139Z,18.55
2022-11-27T15:41:26.510Z,18.13
2022-11-27T15:43:54.149Z,18.38
2022-11-27T15:46:34.323Z,16.77
2022-11-27T15:49:00.716Z,16.17
2022-11-27T15:51:27.172Z,18.58
2022-11-27T15:53:53.572Z,17.05
2022-11-27T15:56:20.730Z,18.15
2022-11-27T15:58:47.248Z,17.30
2022-11-27T16:01:13.708Z,17.05
2022-11-27T16:03:40.703Z,18.08
2022-11-27T16:06:08.562Z,16.77
2022-11-27T16:08:35.165Z,17.45
2022-11-27T16:11:03.587Z,17.45
2022-11-27T16:13:30.088Z,17.73
2022-11-27T16:16:02.007Z,17.83
2022-11-27T16:18:28.885Z,17.90
2022-11-27T16:20:55.715Z,18.80
2022-11-27T16:23:22.164Z,18.20
2022-11-27T16:25:48.643Z,17.65
2022-11-27T16:28:15.161Z,18.05
2022-11-27T16:30:41.796Z,16.63
2022-11-27T16:33:08.265Z,18.15
2022-11-27T16:35:36.435Z,18.98
2022-11-27T16:38:02.924Z,18.92
2022-11-27T16:40:29.596Z,18.70
2022-11-27T16:42:56.039Z,20.27
2022-11-27T16:45:22.535Z,19.00
2022-11-27T16:47:49.141Z,20.20
2022-11-27T16:50:15.658Z,20.25
2022-11-27T16:52:42.118Z,18.95
2022-11-27T16:55:08.949Z,19.48
2022-11-27T16:57:35.371Z,20.95
2022-11-27T17:00:02.198Z,20.17
2022-11-27T17:02:28.853Z,18.90
2022-11-27T17:04:55.975Z,19.90
2022-11-27T17:07:22.489Z,19.65
2022-11-27T17:09:49.221Z,20.15
2022-11-27T17:12:15.969Z,20.15
2022-11-27T17:14:43.770Z,19.85
2022-11-27T17:17:12.966Z,19.88
2022-11-27T17:19:39.966Z,18.70
2022-11-27T17:22:06.784Z,20.33
2022-11-27T17:24:35.759Z,20.40
2022-11-27T17:27:02.747Z,17.95
2022-11-27T17:29:33.466Z,19.08
2022-11-27T17:32:00.515Z,19.75
2022-11-27T17:34:27.049Z,23.63
2022-11-27T17:36:57.312Z,22.63
2022-11-27T17:41:50.147Z,21.25
2022-11-27T17:44:16.549Z,21.80
2022-11-27T17:46:48.029Z,21.80
2022-11-27T17:49:14.442Z,21.73
2022-11-27T17:51:41.314Z,21.42
2022-11-27T17:54:07.793Z,21.48
2022-11-27T17:56:34.932Z,20.90
2022-11-27T17:59:01.855Z,21.48
2022-11-27T18:01:29.649Z,21.02
2022-11-27T18:03:59.770Z,22.88
2022-11-27T18:06:26.663Z,22.92
2022-11-27T18:08:55.193Z,22.13
2022-11-27T18:11:23.481Z,20.38
2022-11-27T18:13:50.492Z,21.55
2022-11-27T18:16:19.788Z,21.20
2022-11-27T18:18:47.334Z,22.70
2022-11-27T18:21:18.741Z,21.23
2022-11-27T18:24:20.659Z,23.17
2022-11-27T18:27:00.566Z,22.33
2022-11-27T18:29:21.760Z,22.30
2022-11-27T18:31:49.297Z,22.92
2022-11-27T18:34:15.757Z,22.50
2022-11-27T18:36:42.165Z,22.77
2022-11-27T18:39:08.557Z,24.27
2022-11-27T18:41:35.102Z,22.15
2022-11-27T18:44:01.712Z,23.05
2022-11-27T18:46:28.361Z,23.27
2022-11-27T18:48:54.922Z,23.77
2022-11-27T18:51:23.917Z,23.70
2022-11-27T18:53:51.459Z,24.70
2022-11-27T18:56:29.330Z,26.35
2022-11-27T18:58:56.500Z,24.05
2022-11-27T19:01:28.663Z,22.83
2022-11-27T19:03:56.240Z,22.88
2022-11-27T19:06:24.921Z,24.35
2022-11-27T19:08:52.182Z,24.45
2022-11-27T19:11:22.306Z,23.58
2022-11-27T19:13:52.193Z,26.25
2022-11-27T19:16:25.036Z,23.55
2022-11-27T19:18:52.450Z,22.58
2022-11-27T19:21:21.853Z,22.65
2022-11-27T19:23:49.557Z,24.70
2022-11-27T19:26:18.925Z,22.63
2022-11-27T19:28:48.999Z,24.03
2022-11-27T19:31:16.330Z,25.98
2022-11-27T19:33:43.580Z,25.20
2022-11-27T19:36:13.525Z,26.17
2022-11-27T19:38:42.347Z,25.30
2022-11-27T19:41:14.311Z,26.27
2022-11-27T19:43:41.018Z,24.33
2022-11-27T19:46:27.262Z,24.92
2022-11-27T19:48:58.649Z,24.85
2022-11-27T19:51:27.149Z,24.52
2022-11-27T19:53:53.970Z,24.70
2022-11-27T19:56:20.695Z,24.23
2022-11-27T19:58:47.208Z,24.15
2022-11-27T20:01:16.413Z,24.30
2022-11-27T20:03:43.614Z,23.42
2022-11-27T20:06:15.388Z,23.17
2022-11-27T20:08:42.960Z,25.45
2022-11-27T20:11:12.239Z,24.85
2022-11-27T20:13:38.710Z,23.70
2022-11-27T20:16:14.662Z,25.25
2022-11-27T20:18:41.643Z,24.83
2022-11-27T20:21:17.078Z,23.88
2022-11-27T20:23:44.749Z,26.17
2022-11-27T20:26:14.893Z,26.42
2022-11-27T20:28:41.816Z,25.35
2022-11-27T20:31:17.246Z,24.90
2022-11-27T20:33:43.757Z,23.05
2022-11-27T20:36:12.284Z,24.00
2022-11-27T20:38:39.487Z,23.85
2022-11-27T20:41:12.135Z,25.27
2022-11-27T20:43:39.113Z,24.05
2022-11-27T20:46:07.586Z,26.98
2022-11-27T20:48:34.122Z,24.77
2022-11-27T20:51:13.697Z,23.30
2022-11-27T20:53:40.907Z,23.63
2022-11-27T20:56:09.115Z,23.80
2022-11-27T20:58:37.031Z,23.73
2022-11-27T21:01:13.914Z,23.67
2022-11-27T21:03:41.003Z,23.30
2022-11-27T21:06:07.733Z,22.83
2022-11-27T21:08:34.311Z,24.00
2022-11-27T21:11:09.699Z,25.08
2022-11-27T21:13:36.511Z,26.58
2022-11-27T21:16:03.033Z,22.33
2022-11-27T21:18:29.499Z,22.77
2022-11-27T21:20:55.892Z,22.67
2022-11-27T21:23:22.331Z,21.58
2022-11-27T21:25:48.869Z,22.52
2022-11-27T21:28:15.261Z,23.08
2022-11-27T21:30:41.652Z,22.02
2022-11-27T21:33:08.078Z,23.88
2022-11-27T21:35:39.103Z,24.40
2022-11-27T21:38:07.994Z,23.85
2022-11-27T21:40:36.741Z,22.63
2022-11-27T21:43:03.272Z,22.38
2022-11-27T21:45:29.709Z,23.13
2022-11-27T21:47:56.289Z,22.90
2022-11-27T21:50:22.721Z,22.35
2022-11-27T21:52:49.155Z,23.25
2022-11-27T21:55:15.603Z,21.90
2022-11-27T21:57:42.049Z,23.33
2022-11-27T22:00:09.005Z,23.42
2022-11-27T22:02:35.514Z,22.58
2022-11-27T22:05:01.987Z,23.67
2022-11-27T22:07:28.467Z,23.20
2022-11-27T22:09:55.192Z,22.70
2022-11-27T22:12:21.629Z,23.77
2022-11-27T22:14:50.201Z,22.75
2022-11-27T22:17:17.083Z,23.02
2022-11-27T22:19:43.552Z,22.33
2022-11-27T22:22:10.052Z,23.92
2022-11-27T22:24:36.751Z,24.88
2022-11-27T22:27:03.261Z,23.30
2022-11-27T22:29:29.760Z,23.40
2022-11-27T22:31:56.203Z,23.30
2022-11-27T22:34:22.644Z,23.45
2022-11-27T22:36:49.105Z,25.45
2022-11-27T22:39:15.626Z,23.83
2022-11-27T22:41:42.816Z,22.98
2022-11-27T22:44:14.031Z,23.33
2022-11-27T22:46:42.304Z,24.92
2022-11-27T22:49:12.334Z,24.38
2022-11-27T22:51:39.255Z,23.70
2022-11-27T22:54:07.854Z,23.50
2022-11-27T22:56:34.263Z,22.23
2022-11-27T22:59:30.505Z,25.02
2022-11-27T23:01:48.521Z,22.13
2022-11-27T23:04:15.475Z,22.73
2022-11-27T23:06:41.951Z,24.08
2022-11-27T23:09:09.656Z,24.23
2022-11-27T23:11:36.071Z,25.05
2022-11-27T23:14:03.317Z,23.17
2022-11-27T23:16:29.824Z,23.55
2022-11-27T23:18:56.281Z,23.80
2022-11-27T23:21:24.705Z,24.23
2022-11-27T23:23:51.778Z,23.42
2022-11-27T23:26:20.365Z,22.25
2022-11-27T23:28:48.981Z,22.33
2022-11-27T23:31:34.078Z,21.92
2022-11-27T23:34:03.079Z,21.92
2022-11-27T23:36:31.353Z,21.67
2022-11-27T23:39:01.958Z,22.65
2022-11-27T23:41:29.191Z,21.65
2022-11-27T23:43:56.285Z,23.13
2022-11-27T23:46:28.316Z,21.58
2022-11-27T23:48:56.776Z,21.83
2022-11-27T23:51:26.197Z,21.90
2022-11-27T23:53:53.616Z,22.95
2022-11-27T23:56:23.165Z,22.20
2022-11-27T23:58:49.974Z,23.15
